sensor_id;sensor_type;location;lat;lon;timestamp;temperature;humidity
16301;DHT22;8258;51.020;4.248;2022-10-16T00:01:41;13.40;99.90
16301;DHT22;8258;51.020;4.248;2022-10-16T00:04:08;13.40;99.90
16301;DHT22;8258;51.020;4.248;2022-10-16T00:06:35;13.40;99.90
16301;DHT22;8258;51.020;4.248;2022-10-16T00:09:02;13.30;99.90
16301;DHT22;8258;51.020;4.248;2022-10-16T00:11:38;13.20;99.90
16301;DHT22;8258;51.020;4.248;2022-10-16T00:14:07;13.20;99.90
16301;DHT22;8258;51.020;4.248;2022-10-16T00:16:35;13.20;99.90
16301;DHT22;8258;51.020;4.248;2022-10-16T00:19:04;13.30;99.90
16301;DHT22;8258;51.020;4.248;2022-10-16T00:21:31;13.20;99.90
16301;DHT22;8258;51.020;4.248;2022-10-16T00:24:00;13.30;99.90
16301;DHT22;8258;51.020;4.248;2022-10-16T00:26:28;13.40;99.90
16301;DHT22;8258;51.020;4.248;2022-10-16T00:28:55;13.40;99.90
16301;DHT22;8258;51.020;4.248;2022-10-16T00:31:23;13.40;99.90
16301;DHT22;8258;51.020;4.248;2022-10-16T00:33:51;13.40;99.90
16301;DHT22;8258;51.020;4.248;2022-10-16T00:36:21;13.30;99.90
16301;DHT22;8258;51.020;4.248;2022-10-16T00:38:50;13.30;99.90
16301;DHT22;8258;51.020;4.248;2022-10-16T00:41:18;13.30;99.90
16301;DHT22;8258;51.020;4.248;2022-10-16T00:43:53;13.30;99.90
16301;DHT22;8258;51.020;4.248;2022-10-16T00:46:23;13.20;99.90
16301;DHT22;8258;51.020;4.248;2022-10-16T00:48:54;13.20;99.90
16301;DHT22;8258;51.020;4.248;2022-10-16T00:51:28;13.30;99.90
16301;DHT22;8258;51.020;4.248;2022-10-16T00:53:55;13.20;99.90
16301;DHT22;8258;51.020;4.248;2022-10-16T00:56:22;13.20;99.90
16301;DHT22;8258;51.020;4.248;2022-10-16T00:58:49;13.20;99.90
16301;DHT22;8258;51.020;4.248;2022-10-16T01:01:16;13.20;99.90
16301;DHT22;8258;51.020;4.248;2022-10-16T01:03:43;13.10;99.90
16301;DHT22;8258;51.020;4.248;2022-10-16T01:06:25;13.20;99.90
16301;DHT22;8258;51.020;4.248;2022-10-16T01:09:06;13.20;99.90
16301;DHT22;8258;51.020;4.248;2022-10-16T01:11:41;13.20;99.90
16301;DHT22;8258;51.020;4.248;2022-10-16T01:14:20;13.20;99.90
16301;DHT22;8258;51.020;4.248;2022-10-16T01:16:52;13.10;99.90
16301;DHT22;8258;51.020;4.248;2022-10-16T01:19:26;13.20;99.90
16301;DHT22;8258;51.020;4.248;2022-10-16T01:22:01;13.20;99.90
16301;DHT22;8258;51.020;4.248;2022-10-16T01:24:33;13.20;99.90
16301;DHT22;8258;51.020;4.248;2022-10-16T01:27:15;13.20;99.90
16301;DHT22;8258;51.020;4.248;2022-10-16T01:29:51;13.20;99.90
16301;DHT22;8258;51.020;4.248;2022-10-16T01:32:30;13.20;99.90
16301;DHT22;8258;51.020;4.248;2022-10-16T01:35:01;13.10;99.90
16301;DHT22;8258;51.020;4.248;2022-10-16T01:37:35;13.10;99.90
16301;DHT22;8258;51.020;4.248;2022-10-16T01:40:06;13.10;99.90
16301;DHT22;8258;51.020;4.248;2022-10-16T01:42:38;13.10;99.90
16301;DHT22;8258;51.020;4.248;2022-10-16T01:45:08;13.10;99.90
16301;DHT22;8258;51.020;4.248;2022-10-16T01:47:39;13.10;99.90
16301;DHT22;8258;51.020;4.248;2022-10-16T01:50:08;13.00;99.90
16301;DHT22;8258;51.020;4.248;2022-10-16T01:52:37;13.00;99.90
16301;DHT22;8258;51.020;4.248;2022-10-16T01:55:07;13.00;99.90
16301;DHT22;8258;51.020;4.248;2022-10-16T01:57:39;13.00;99.90
16301;DHT22;8258;51.020;4.248;2022-10-16T02:00:10;13.00;99.90
16301;DHT22;8258;51.020;4.248;2022-10-16T02:02:40;13.00;99.90
16301;DHT22;8258;51.020;4.248;2022-10-16T02:05:12;13.00;99.90
16301;DHT22;8258;51.020;4.248;2022-10-16T02:07:42;13.00;99.90
16301;DHT22;8258;51.020;4.248;2022-10-16T02:10:09;13.00;99.90
16301;DHT22;8258;51.020;4.248;2022-10-16T02:12:41;13.00;99.90
16301;DHT22;8258;51.020;4.248;2022-10-16T02:15:09;13.00;99.90
16301;DHT22;8258;51.020;4.248;2022-10-16T02:17:36;13.00;99.90
16301;DHT22;8258;51.020;4.248;2022-10-16T02:20:03;13.00;99.90
16301;DHT22;8258;51.020;4.248;2022-10-16T02:22:33;13.00;99.90
16301;DHT22;8258;51.020;4.248;2022-10-16T02:25:05;13.00;99.90
16301;DHT22;8258;51.020;4.248;2022-10-16T02:27:34;12.90;99.90
16301;DHT22;8258;51.020;4.248;2022-10-16T02:30:10;12.90;99.90
16301;DHT22;8258;51.020;4.248;2022-10-16T02:32:40;12.90;99.90
16301;DHT22;8258;51.020;4.248;2022-10-16T02:35:09;12.90;99.90
16301;DHT22;8258;51.020;4.248;2022-10-16T02:37:37;12.90;99.90
16301;DHT22;8258;51.020;4.248;2022-10-16T02:40:06;12.90;99.90
16301;DHT22;8258;51.020;4.248;2022-10-16T02:42:34;12.90;99.90
16301;DHT22;8258;51.020;4.248;2022-10-16T02:45:01;12.90;99.90
16301;DHT22;8258;51.020;4.248;2022-10-16T02:47:30;13.00;99.90
16301;DHT22;8258;51.020;4.248;2022-10-16T02:49:57;13.00;99.90
16301;DHT22;8258;51.020;4.248;2022-10-16T02:52:24;13.00;99.90
16301;DHT22;8258;51.020;4.248;2022-10-16T02:54:51;13.00;99.90
16301;DHT22;8258;51.020;4.248;2022-10-16T02:57:18;13.00;99.90
16301;DHT22;8258;51.020;4.248;2022-10-16T02:59:45;13.00;99.90
16301;DHT22;8258;51.020;4.248;2022-10-16T03:02:12;13.00;99.90
16301;DHT22;8258;51.020;4.248;2022-10-16T03:04:40;13.00;99.90
16301;DHT22;8258;51.020;4.248;2022-10-16T03:07:07;13.00;99.90
16301;DHT22;8258;51.020;4.248;2022-10-16T03:09:34;13.00;99.90
16301;DHT22;8258;51.020;4.248;2022-10-16T03:12:01;13.00;99.90
16301;DHT22;8258;51.020;4.248;2022-10-16T03:14:28;13.00;99.90
16301;DHT22;8258;51.020;4.248;2022-10-16T03:16:55;13.00;99.90
16301;DHT22;8258;51.020;4.248;2022-10-16T03:19:22;13.00;99.90
16301;DHT22;8258;51.020;4.248;2022-10-16T03:21:50;13.00;99.90
16301;DHT22;8258;51.020;4.248;2022-10-16T03:24:17;13.00;99.90
16301;DHT22;8258;51.020;4.248;2022-10-16T03:26:44;13.00;99.90
16301;DHT22;8258;51.020;4.248;2022-10-16T03:29:11;12.90;99.90
16301;DHT22;8258;51.020;4.248;2022-10-16T03:31:38;12.90;99.90
16301;DHT22;8258;51.020;4.248;2022-10-16T03:34:04;12.90;99.90
16301;DHT22;8258;51.020;4.248;2022-10-16T03:36:31;12.90;99.90
16301;DHT22;8258;51.020;4.248;2022-10-16T03:39:00;12.90;99.90
16301;DHT22;8258;51.020;4.248;2022-10-16T03:41:26;12.90;99.90
16301;DHT22;8258;51.020;4.248;2022-10-16T03:43:53;13.00;99.90
16301;DHT22;8258;51.020;4.248;2022-10-16T03:46:20;13.00;99.90
16301;DHT22;8258;51.020;4.248;2022-10-16T03:48:47;12.90;99.90
16301;DHT22;8258;51.020;4.248;2022-10-16T03:51:14;12.90;99.90
16301;DHT22;8258;51.020;4.248;2022-10-16T03:53:40;12.90;99.90
16301;DHT22;8258;51.020;4.248;2022-10-16T03:56:09;12.90;99.90
16301;DHT22;8258;51.020;4.248;2022-10-16T03:58:36;12.90;99.90
16301;DHT22;8258;51.020;4.248;2022-10-16T04:01:03;12.90;99.90
16301;DHT22;8258;51.020;4.248;2022-10-16T04:03:29;12.90;99.90
16301;DHT22;8258;51.020;4.248;2022-10-16T04:05:56;12.90;99.90
16301;DHT22;8258;51.020;4.248;2022-10-16T04:08:23;12.90;99.90
16301;DHT22;8258;51.020;4.248;2022-10-16T04:10:50;12.90;99.90
16301;DHT22;8258;51.020;4.248;2022-10-16T04:13:18;12.80;99.90
16301;DHT22;8258;51.020;4.248;2022-10-16T04:15:45;12.80;99.90
16301;DHT22;8258;51.020;4.248;2022-10-16T04:18:12;12.80;99.90
16301;DHT22;8258;51.020;4.248;2022-10-16T04:20:40;12.80;99.90
16301;DHT22;8258;51.020;4.248;2022-10-16T04:23:07;12.80;99.90
16301;DHT22;8258;51.020;4.248;2022-10-16T04:25:34;12.80;99.90
16301;DHT22;8258;51.020;4.248;2022-10-16T04:28:01;12.70;99.90
16301;DHT22;8258;51.020;4.248;2022-10-16T04:30:29;12.70;99.90
16301;DHT22;8258;51.020;4.248;2022-10-16T04:32:56;12.70;99.90
16301;DHT22;8258;51.020;4.248;2022-10-16T04:35:23;12.60;99.90
16301;DHT22;8258;51.020;4.248;2022-10-16T04:37:50;12.60;99.90
16301;DHT22;8258;51.020;4.248;2022-10-16T04:40:17;12.50;99.90
16301;DHT22;8258;51.020;4.248;2022-10-16T04:42:44;12.50;99.90
16301;DHT22;8258;51.020;4.248;2022-10-16T04:45:11;12.50;99.90
16301;DHT22;8258;51.020;4.248;2022-10-16T04:47:39;12.50;99.90
16301;DHT22;8258;51.020;4.248;2022-10-16T04:50:06;12.50;99.90
16301;DHT22;8258;51.020;4.248;2022-10-16T04:52:33;12.40;99.90
16301;DHT22;8258;51.020;4.248;2022-10-16T04:55:00;12.40;99.90
16301;DHT22;8258;51.020;4.248;2022-10-16T04:57:28;12.40;99.90
16301;DHT22;8258;51.020;4.248;2022-10-16T04:59:56;12.40;99.90
16301;DHT22;8258;51.020;4.248;2022-10-16T05:02:22;12.40;99.90
16301;DHT22;8258;51.020;4.248;2022-10-16T05:04:51;12.40;99.90
16301;DHT22;8258;51.020;4.248;2022-10-16T05:07:18;12.40;99.90
16301;DHT22;8258;51.020;4.248;2022-10-16T05:09:45;12.40;99.90
16301;DHT22;8258;51.020;4.248;2022-10-16T05:12:12;12.40;99.90
16301;DHT22;8258;51.020;4.248;2022-10-16T05:14:38;12.40;99.90
16301;DHT22;8258;51.020;4.248;2022-10-16T05:17:05;12.40;99.90
16301;DHT22;8258;51.020;4.248;2022-10-16T05:19:32;12.30;99.90
16301;DHT22;8258;51.020;4.248;2022-10-16T05:22:01;12.30;99.90
16301;DHT22;8258;51.020;4.248;2022-10-16T05:24:27;12.30;99.90
16301;DHT22;8258;51.020;4.248;2022-10-16T05:26:55;12.30;99.90
16301;DHT22;8258;51.020;4.248;2022-10-16T05:29:21;12.30;99.90
16301;DHT22;8258;51.020;4.248;2022-10-16T05:31:50;12.30;99.90
16301;DHT22;8258;51.020;4.248;2022-10-16T05:34:17;12.30;99.90
16301;DHT22;8258;51.020;4.248;2022-10-16T05:36:44;12.30;99.90
16301;DHT22;8258;51.020;4.248;2022-10-16T05:39:14;12.40;99.90
16301;DHT22;8258;51.020;4.248;2022-10-16T05:41:41;12.40;99.90
16301;DHT22;8258;51.020;4.248;2022-10-16T05:44:15;12.40;99.90
16301;DHT22;8258;51.020;4.248;2022-10-16T05:46:41;12.40;99.90
16301;DHT22;8258;51.020;4.248;2022-10-16T05:49:08;12.40;99.90
16301;DHT22;8258;51.020;4.248;2022-10-16T05:51:35;12.40;99.90
16301;DHT22;8258;51.020;4.248;2022-10-16T05:54:02;12.40;99.90
16301;DHT22;8258;51.020;4.248;2022-10-16T05:56:30;12.50;99.90
16301;DHT22;8258;51.020;4.248;2022-10-16T05:59:04;12.50;99.90
16301;DHT22;8258;51.020;4.248;2022-10-16T06:01:32;12.60;99.90
16301;DHT22;8258;51.020;4.248;2022-10-16T06:03:59;12.70;99.90
16301;DHT22;8258;51.020;4.248;2022-10-16T06:06:27;12.80;99.90
16301;DHT22;8258;51.020;4.248;2022-10-16T06:08:56;12.80;99.90
16301;DHT22;8258;51.020;4.248;2022-10-16T06:11:27;12.80;99.90
16301;DHT22;8258;51.020;4.248;2022-10-16T06:13:56;12.90;99.90
16301;DHT22;8258;51.020;4.248;2022-10-16T06:16:24;12.90;99.90
16301;DHT22;8258;51.020;4.248;2022-10-16T06:18:52;12.90;99.90
16301;DHT22;8258;51.020;4.248;2022-10-16T06:21:20;12.90;99.90
16301;DHT22;8258;51.020;4.248;2022-10-16T06:23:47;13.00;99.90
16301;DHT22;8258;51.020;4.248;2022-10-16T06:26:16;13.10;99.90
16301;DHT22;8258;51.020;4.248;2022-10-16T06:28:44;13.10;99.90
16301;DHT22;8258;51.020;4.248;2022-10-16T06:31:12;13.10;99.90
16301;DHT22;8258;51.020;4.248;2022-10-16T06:33:40;13.10;99.90
16301;DHT22;8258;51.020;4.248;2022-10-16T06:36:09;13.10;99.90
16301;DHT22;8258;51.020;4.248;2022-10-16T06:38:37;13.20;99.90
16301;DHT22;8258;51.020;4.248;2022-10-16T06:41:05;13.50;99.90
16301;DHT22;8258;51.020;4.248;2022-10-16T06:43:33;14.00;99.90
16301;DHT22;8258;51.020;4.248;2022-10-16T06:46:01;14.40;99.90
16301;DHT22;8258;51.020;4.248;2022-10-16T06:48:30;14.90;99.90
16301;DHT22;8258;51.020;4.248;2022-10-16T06:50:58;14.90;99.90
16301;DHT22;8258;51.020;4.248;2022-10-16T06:53:26;15.10;99.90
16301;DHT22;8258;51.020;4.248;2022-10-16T06:55:53;15.30;99.90
16301;DHT22;8258;51.020;4.248;2022-10-16T06:58:20;15.10;99.90
16301;DHT22;8258;51.020;4.248;2022-10-16T07:00:47;15.10;99.90
16301;DHT22;8258;51.020;4.248;2022-10-16T07:03:15;14.70;99.90
16301;DHT22;8258;51.020;4.248;2022-10-16T07:05:43;14.40;99.90
16301;DHT22;8258;51.020;4.248;2022-10-16T07:08:10;14.20;99.90
16301;DHT22;8258;51.020;4.248;2022-10-16T07:10:37;14.40;99.90
16301;DHT22;8258;51.020;4.248;2022-10-16T07:13:04;15.30;99.90
16301;DHT22;8258;51.020;4.248;2022-10-16T07:15:33;16.10;99.90
16301;DHT22;8258;51.020;4.248;2022-10-16T07:18:00;16.70;99.90
16301;DHT22;8258;51.020;4.248;2022-10-16T07:20:27;17.20;99.90
16301;DHT22;8258;51.020;4.248;2022-10-16T07:22:55;17.70;99.90
16301;DHT22;8258;51.020;4.248;2022-10-16T07:25:22;17.90;99.90
16301;DHT22;8258;51.020;4.248;2022-10-16T07:27:49;18.10;99.90
16301;DHT22;8258;51.020;4.248;2022-10-16T07:30:18;18.50;99.90
16301;DHT22;8258;51.020;4.248;2022-10-16T07:32:45;19.10;99.90
16301;DHT22;8258;51.020;4.248;2022-10-16T07:35:11;19.30;99.90
16301;DHT22;8258;51.020;4.248;2022-10-16T07:37:38;19.60;99.90
16301;DHT22;8258;51.020;4.248;2022-10-16T07:40:08;19.80;99.90
16301;DHT22;8258;51.020;4.248;2022-10-16T07:42:35;20.20;99.90
16301;DHT22;8258;51.020;4.248;2022-10-16T07:45:03;20.10;99.90
16301;DHT22;8258;51.020;4.248;2022-10-16T07:47:30;19.70;99.90
16301;DHT22;8258;51.020;4.248;2022-10-16T07:49:56;19.70;99.90
16301;DHT22;8258;51.020;4.248;2022-10-16T07:52:23;19.60;99.90
16301;DHT22;8258;51.020;4.248;2022-10-16T07:54:50;19.80;99.90
16301;DHT22;8258;51.020;4.248;2022-10-16T07:57:19;19.70;99.90
16301;DHT22;8258;51.020;4.248;2022-10-16T07:59:45;19.40;99.90
16301;DHT22;8258;51.020;4.248;2022-10-16T08:02:12;18.50;99.90
16301;DHT22;8258;51.020;4.248;2022-10-16T08:04:39;18.40;99.90
16301;DHT22;8258;51.020;4.248;2022-10-16T08:07:07;18.50;99.90
16301;DHT22;8258;51.020;4.248;2022-10-16T08:09:34;18.70;99.90
16301;DHT22;8258;51.020;4.248;2022-10-16T08:12:01;19.10;99.90
16301;DHT22;8258;51.020;4.248;2022-10-16T08:14:31;19.60;99.90
16301;DHT22;8258;51.020;4.248;2022-10-16T08:16:57;20.20;99.90
16301;DHT22;8258;51.020;4.248;2022-10-16T08:19:24;20.90;99.90
16301;DHT22;8258;51.020;4.248;2022-10-16T08:21:53;21.20;99.90
16301;DHT22;8258;51.020;4.248;2022-10-16T08:24:20;21.30;99.90
16301;DHT22;8258;51.020;4.248;2022-10-16T08:26:47;21.20;99.90
16301;DHT22;8258;51.020;4.248;2022-10-16T08:29:14;21.30;99.90
16301;DHT22;8258;51.020;4.248;2022-10-16T08:31:42;21.40;99.90
16301;DHT22;8258;51.020;4.248;2022-10-16T08:34:09;22.00;99.90
16301;DHT22;8258;51.020;4.248;2022-10-16T08:36:36;22.40;99.90
16301;DHT22;8258;51.020;4.248;2022-10-16T08:39:10;22.40;99.90
16301;DHT22;8258;51.020;4.248;2022-10-16T08:42:11;22.50;99.90
16301;DHT22;8258;51.020;4.248;2022-10-16T08:47:43;22.60;99.90
16301;DHT22;8258;51.020;4.248;2022-10-16T08:50:13;22.80;99.90
16301;DHT22;8258;51.020;4.248;2022-10-16T08:52:43;23.00;99.90
16301;DHT22;8258;51.020;4.248;2022-10-16T08:55:22;22.90;99.90
16301;DHT22;8258;51.020;4.248;2022-10-16T08:57:51;22.90;99.90
16301;DHT22;8258;51.020;4.248;2022-10-16T09:00:18;23.20;99.90
16301;DHT22;8258;51.020;4.248;2022-10-16T09:02:52;23.10;99.90
16301;DHT22;8258;51.020;4.248;2022-10-16T09:05:33;23.50;99.90
16301;DHT22;8258;51.020;4.248;2022-10-16T09:08:08;23.70;99.90
16301;DHT22;8258;51.020;4.248;2022-10-16T09:10:45;23.20;99.90
16301;DHT22;8258;51.020;4.248;2022-10-16T09:13:21;22.50;99.90
16301;DHT22;8258;51.020;4.248;2022-10-16T09:15:56;22.60;99.90
16301;DHT22;8258;51.020;4.248;2022-10-16T09:18:31;23.50;99.90
16301;DHT22;8258;51.020;4.248;2022-10-16T09:21:06;23.30;99.90
16301;DHT22;8258;51.020;4.248;2022-10-16T09:23:37;23.60;99.90
16301;DHT22;8258;51.020;4.248;2022-10-16T09:26:05;23.50;99.90
16301;DHT22;8258;51.020;4.248;2022-10-16T09:28:36;22.90;99.90
16301;DHT22;8258;51.020;4.248;2022-10-16T09:31:03;23.80;99.90
16301;DHT22;8258;51.020;4.248;2022-10-16T09:33:34;24.60;99.90
16301;DHT22;8258;51.020;4.248;2022-10-16T09:36:04;24.90;99.90
16301;DHT22;8258;51.020;4.248;2022-10-16T09:38:33;25.00;99.90
16301;DHT22;8258;51.020;4.248;2022-10-16T09:41:03;24.90;99.90
16301;DHT22;8258;51.020;4.248;2022-10-16T09:43:40;24.80;99.90
16301;DHT22;8258;51.020;4.248;2022-10-16T09:46:21;25.60;99.90
16301;DHT22;8258;51.020;4.248;2022-10-16T09:48:53;25.80;99.90
16301;DHT22;8258;51.020;4.248;2022-10-16T09:51:24;26.50;99.90
16301;DHT22;8258;51.020;4.248;2022-10-16T09:53:55;26.70;99.90
16301;DHT22;8258;51.020;4.248;2022-10-16T09:56:25;26.50;99.90
16301;DHT22;8258;51.020;4.248;2022-10-16T09:58:53;26.90;99.90
16301;DHT22;8258;51.020;4.248;2022-10-16T10:01:22;27.40;99.90
16301;DHT22;8258;51.020;4.248;2022-10-16T10:03:55;27.10;99.90
16301;DHT22;8258;51.020;4.248;2022-10-16T10:06:28;26.80;99.90
16301;DHT22;8258;51.020;4.248;2022-10-16T10:09:02;26.70;99.90
16301;DHT22;8258;51.020;4.248;2022-10-16T10:11:51;27.10;99.90
16301;DHT22;8258;51.020;4.248;2022-10-16T10:14:24;26.80;99.90
16301;DHT22;8258;51.020;4.248;2022-10-16T10:17:00;27.10;99.90
16301;DHT22;8258;51.020;4.248;2022-10-16T10:19:29;27.30;99.90
16301;DHT22;8258;51.020;4.248;2022-10-16T10:21:56;28.30;99.10
16301;DHT22;8258;51.020;4.248;2022-10-16T10:24:23;28.00;99.40
16301;DHT22;8258;51.020;4.248;2022-10-16T10:26:54;27.40;99.40
16301;DHT22;8258;51.020;4.248;2022-10-16T10:29:39;26.10;99.90
16301;DHT22;8258;51.020;4.248;2022-10-16T10:32:18;26.00;99.90
16301;DHT22;8258;51.020;4.248;2022-10-16T10:35:01;26.00;99.90
16301;DHT22;8258;51.020;4.248;2022-10-16T10:37:41;27.50;99.90
16301;DHT22;8258;51.020;4.248;2022-10-16T10:40:16;28.10;99.20
16301;DHT22;8258;51.020;4.248;2022-10-16T10:42:53;25.80;99.90
16301;DHT22;8258;51.020;4.248;2022-10-16T10:45:26;23.30;99.90
16301;DHT22;8258;51.020;4.248;2022-10-16T10:48:09;23.50;99.90
16301;DHT22;8258;51.020;4.248;2022-10-16T10:50:43;23.40;99.90
16301;DHT22;8258;51.020;4.248;2022-10-16T10:53:21;24.80;99.90
16301;DHT22;8258;51.020;4.248;2022-10-16T10:55:56;26.60;99.90
16301;DHT22;8258;51.020;4.248;2022-10-16T10:58:58;27.10;99.90
16301;DHT22;8258;51.020;4.248;2022-10-16T11:01:31;26.10;99.90
16301;DHT22;8258;51.020;4.248;2022-10-16T11:04:27;24.30;99.90
16301;DHT22;8258;51.020;4.248;2022-10-16T11:06:59;24.60;99.90
16301;DHT22;8258;51.020;4.248;2022-10-16T11:09:31;25.80;99.90
16301;DHT22;8258;51.020;4.248;2022-10-16T11:12:02;25.80;99.90
16301;DHT22;8258;51.020;4.248;2022-10-16T11:14:36;25.90;99.90
16301;DHT22;8258;51.020;4.248;2022-10-16T11:17:14;26.10;99.90
16301;DHT22;8258;51.020;4.248;2022-10-16T11:19:46;26.80;99.90
16301;DHT22;8258;51.020;4.248;2022-10-16T11:22:19;27.40;98.80
16301;DHT22;8258;51.020;4.248;2022-10-16T11:24:52;27.40;98.80
16301;DHT22;8258;51.020;4.248;2022-10-16T11:27:23;28.10;97.00
16301;DHT22;8258;51.020;4.248;2022-10-16T11:29:57;28.50;96.70
16301;DHT22;8258;51.020;4.248;2022-10-16T11:32:29;28.90;96.00
16301;DHT22;8258;51.020;4.248;2022-10-16T11:35:02;29.20;95.70
16301;DHT22;8258;51.020;4.248;2022-10-16T11:37:36;27.50;96.60
16301;DHT22;8258;51.020;4.248;2022-10-16T11:40:18;25.50;99.90
16301;DHT22;8258;51.020;4.248;2022-10-16T11:42:50;25.70;99.90
16301;DHT22;8258;51.020;4.248;2022-10-16T11:45:26;26.30;99.90
16301;DHT22;8258;51.020;4.248;2022-10-16T11:47:58;27.80;99.00
16301;DHT22;8258;51.020;4.248;2022-10-16T11:50:32;28.90;96.30
16301;DHT22;8258;51.020;4.248;2022-10-16T11:53:07;29.10;95.80
16301;DHT22;8258;51.020;4.248;2022-10-16T11:55:40;30.40;93.80
16301;DHT22;8258;51.020;4.248;2022-10-16T11:58:13;30.40;95.00
16301;DHT22;8258;51.020;4.248;2022-10-16T12:00:46;31.60;92.90
16301;DHT22;8258;51.020;4.248;2022-10-16T12:03:19;31.80;87.20
16301;DHT22;8258;51.020;4.248;2022-10-16T12:05:58;30.60;89.70
16301;DHT22;8258;51.020;4.248;2022-10-16T12:08:33;28.50;91.10
16301;DHT22;8258;51.020;4.248;2022-10-16T12:11:07;27.60;93.10
16301;DHT22;8258;51.020;4.248;2022-10-16T12:13:36;27.10;93.60
16301;DHT22;8258;51.020;4.248;2022-10-16T12:16:19;28.00;93.20
16301;DHT22;8258;51.020;4.248;2022-10-16T12:18:47;29.00;92.40
16301;DHT22;8258;51.020;4.248;2022-10-16T12:21:16;29.80;90.20
16301;DHT22;8258;51.020;4.248;2022-10-16T12:23:49;28.40;90.80
16301;DHT22;8258;51.020;4.248;2022-10-16T12:26:24;27.20;93.40
16301;DHT22;8258;51.020;4.248;2022-10-16T12:28:52;27.30;93.40
16301;DHT22;8258;51.020;4.248;2022-10-16T12:31:19;28.20;92.30
16301;DHT22;8258;51.020;4.248;2022-10-16T12:33:57;27.10;93.00
16301;DHT22;8258;51.020;4.248;2022-10-16T12:36:29;25.60;94.70
16301;DHT22;8258;51.020;4.248;2022-10-16T12:38:58;24.80;96.90
16301;DHT22;8258;51.020;4.248;2022-10-16T12:41:27;25.70;96.40
16301;DHT22;8258;51.020;4.248;2022-10-16T12:43:55;27.00;94.50
16301;DHT22;8258;51.020;4.248;2022-10-16T12:46:33;28.10;93.50
16301;DHT22;8258;51.020;4.248;2022-10-16T12:49:31;28.70;92.50
16301;DHT22;8258;51.020;4.248;2022-10-16T12:51:59;27.80;92.80
16301;DHT22;8258;51.020;4.248;2022-10-16T12:54:31;25.40;95.50
16301;DHT22;8258;51.020;4.248;2022-10-16T12:57:13;24.30;98.00
16301;DHT22;8258;51.020;4.248;2022-10-16T12:59:52;23.80;99.60
16301;DHT22;8258;51.020;4.248;2022-10-16T13:02:42;23.70;99.90
16301;DHT22;8258;51.020;4.248;2022-10-16T13:05:30;23.60;99.90
16301;DHT22;8258;51.020;4.248;2022-10-16T13:08:06;23.50;99.90
16301;DHT22;8258;51.020;4.248;2022-10-16T13:10:42;23.50;99.90
16301;DHT22;8258;51.020;4.248;2022-10-16T13:13:29;23.20;99.90
16301;DHT22;8258;51.020;4.248;2022-10-16T13:16:12;23.00;99.90
16301;DHT22;8258;51.020;4.248;2022-10-16T13:18:52;22.20;99.90
16301;DHT22;8258;51.020;4.248;2022-10-16T13:21:32;21.80;99.90
16301;DHT22;8258;51.020;4.248;2022-10-16T13:24:18;21.70;99.90
16301;DHT22;8258;51.020;4.248;2022-10-16T13:26:52;21.60;99.90
16301;DHT22;8258;51.020;4.248;2022-10-16T13:29:22;21.30;99.90
16301;DHT22;8258;51.020;4.248;2022-10-16T13:31:50;21.20;99.90
16301;DHT22;8258;51.020;4.248;2022-10-16T13:34:19;21.10;99.90
16301;DHT22;8258;51.020;4.248;2022-10-16T13:36:48;21.00;99.90
16301;DHT22;8258;51.020;4.248;2022-10-16T13:39:21;21.20;99.90
16301;DHT22;8258;51.020;4.248;2022-10-16T13:42:01;21.50;99.90
16301;DHT22;8258;51.020;4.248;2022-10-16T13:44:35;22.30;99.90
16301;DHT22;8258;51.020;4.248;2022-10-16T13:47:03;23.00;99.90
16301;DHT22;8258;51.020;4.248;2022-10-16T13:49:29;22.60;99.90
16301;DHT22;8258;51.020;4.248;2022-10-16T13:52:03;22.20;99.90
16301;DHT22;8258;51.020;4.248;2022-10-16T13:54:36;21.80;99.90
16301;DHT22;8258;51.020;4.248;2022-10-16T13:57:06;21.50;99.90
16301;DHT22;8258;51.020;4.248;2022-10-16T13:59:34;21.30;99.90
16301;DHT22;8258;51.020;4.248;2022-10-16T14:02:08;21.10;99.90
16301;DHT22;8258;51.020;4.248;2022-10-16T14:04:38;21.00;99.90
16301;DHT22;8258;51.020;4.248;2022-10-16T14:07:12;20.80;99.90
16301;DHT22;8258;51.020;4.248;2022-10-16T14:09:39;20.70;99.90
16301;DHT22;8258;51.020;4.248;2022-10-16T14:12:11;20.80;99.90
16301;DHT22;8258;51.020;4.248;2022-10-16T14:14:42;21.10;99.90
16301;DHT22;8258;51.020;4.248;2022-10-16T14:17:13;21.30;99.90
16301;DHT22;8258;51.020;4.248;2022-10-16T14:19:40;21.40;99.90
16301;DHT22;8258;51.020;4.248;2022-10-16T14:22:24;22.00;99.90
16301;DHT22;8258;51.020;4.248;2022-10-16T14:24:53;23.20;99.90
16301;DHT22;8258;51.020;4.248;2022-10-16T14:27:29;23.80;99.90
16301;DHT22;8258;51.020;4.248;2022-10-16T14:30:15;24.40;99.90
16301;DHT22;8258;51.020;4.248;2022-10-16T14:32:53;24.40;99.90
16301;DHT22;8258;51.020;4.248;2022-10-16T14:35:29;24.30;99.90
16301;DHT22;8258;51.020;4.248;2022-10-16T14:37:57;26.00;99.90
16301;DHT22;8258;51.020;4.248;2022-10-16T14:40:26;26.40;99.90
16301;DHT22;8258;51.020;4.248;2022-10-16T14:42:55;25.70;99.90
16301;DHT22;8258;51.020;4.248;2022-10-16T14:45:24;24.70;99.90
16301;DHT22;8258;51.020;4.248;2022-10-16T14:47:54;23.70;99.90
16301;DHT22;8258;51.020;4.248;2022-10-16T14:50:22;22.90;99.90
16301;DHT22;8258;51.020;4.248;2022-10-16T14:52:49;22.20;99.90
16301;DHT22;8258;51.020;4.248;2022-10-16T14:55:16;21.70;99.90
16301;DHT22;8258;51.020;4.248;2022-10-16T14:57:44;21.00;99.90
16301;DHT22;8258;51.020;4.248;2022-10-16T15:00:21;20.70;99.90
16301;DHT22;8258;51.020;4.248;2022-10-16T15:02:49;20.70;99.90
16301;DHT22;8258;51.020;4.248;2022-10-16T15:05:18;20.60;99.90
16301;DHT22;8258;51.020;4.248;2022-10-16T15:07:45;20.60;99.90
16301;DHT22;8258;51.020;4.248;2022-10-16T15:10:13;20.80;99.90
16301;DHT22;8258;51.020;4.248;2022-10-16T15:12:40;20.90;99.90
16301;DHT22;8258;51.020;4.248;2022-10-16T15:15:32;20.90;99.90
16301;DHT22;8258;51.020;4.248;2022-10-16T15:18:00;20.90;99.90
16301;DHT22;8258;51.020;4.248;2022-10-16T15:20:31;20.90;99.90
16301;DHT22;8258;51.020;4.248;2022-10-16T15:23:00;20.70;99.90
16301;DHT22;8258;51.020;4.248;2022-10-16T15:25:34;20.70;99.90
16301;DHT22;8258;51.020;4.248;2022-10-16T15:28:02;20.60;99.90
16301;DHT22;8258;51.020;4.248;2022-10-16T15:30:30;20.50;99.90
16301;DHT22;8258;51.020;4.248;2022-10-16T15:32:58;20.30;99.90
16301;DHT22;8258;51.020;4.248;2022-10-16T15:35:25;20.20;99.90
16301;DHT22;8258;51.020;4.248;2022-10-16T15:37:52;20.20;99.90
16301;DHT22;8258;51.020;4.248;2022-10-16T15:40:20;20.10;99.90
16301;DHT22;8258;51.020;4.248;2022-10-16T15:42:48;20.00;99.90
16301;DHT22;8258;51.020;4.248;2022-10-16T15:45:16;20.00;99.90
16301;DHT22;8258;51.020;4.248;2022-10-16T15:47:43;19.80;99.90
16301;DHT22;8258;51.020;4.248;2022-10-16T15:50:12;19.80;99.90
16301;DHT22;8258;51.020;4.248;2022-10-16T15:52:39;19.60;99.90
16301;DHT22;8258;51.020;4.248;2022-10-16T15:55:08;19.50;99.90
16301;DHT22;8258;51.020;4.248;2022-10-16T15:57:35;19.40;99.90
16301;DHT22;8258;51.020;4.248;2022-10-16T16:00:05;19.40;99.90
16301;DHT22;8258;51.020;4.248;2022-10-16T16:02:33;19.40;99.90
16301;DHT22;8258;51.020;4.248;2022-10-16T16:05:00;19.30;99.90
16301;DHT22;8258;51.020;4.248;2022-10-16T16:07:29;19.30;99.90
16301;DHT22;8258;51.020;4.248;2022-10-16T16:09:58;19.30;99.90